Time;durP1;ratioP1;P1;durP2;ratioP2;P2;SDS_P1;SDS_P2;PMS_P1;PMS_P2;Temp;Humidity;BMP_temperature;BMP_pressure;BME280_temperature;BME280_humidity;BME280_pressure;Samples;Min_cycle;Max_cycle;Signal;HPM_P1;HPM_P2
2021/03/24 00:01:46;;;;;;;21.02;13.35;;;;;;;10.47;38.71;101958.66;5011032;28;20073;-64
2021/03/24 00:04:13;;;;;;;16.65;10.73;;;;;;;10.47;38.83;101969.16;5012561;28;20050;-66
2021/03/24 00:06:40;;;;;;;21.55;11.00;;;;;;;10.45;38.67;101967.44;5013031;28;20052;-64
2021/03/24 00:09:09;;;;;;;13.60;9.07;;;;;;;10.44;38.78;101967.50;5012990;28;20049;-66
2021/03/24 00:11:36;;;;;;;13.38;9.60;;;;;;;10.43;38.66;101965.78;5012842;28;20049;-64
2021/03/24 00:14:04;;;;;;;18.13;10.23;;;;;;;10.44;38.67;101967.50;5013103;28;20461;-64
2021/03/24 00:16:30;;;;;;;16.98;9.40;;;;;;;10.48;38.09;101971.72;5012853;28;20533;-64
2021/03/24 00:18:56;;;;;;;14.85;8.02;;;;;;;10.50;38.24;101963.78;5013123;28;20061;-65
2021/03/24 00:21:22;;;;;;;10.00;6.70;;;;;;;10.51;37.93;101971.59;5012355;28;20077;-64
2021/03/24 00:23:48;;;;;;;9.63;6.55;;;;;;;10.52;37.65;101969.84;5011600;28;20050;-64
2021/03/24 00:26:14;;;;;;;10.77;6.78;;;;;;;10.53;37.62;101964.53;5012853;28;20108;-65
2021/03/24 00:28:40;;;;;;;12.25;6.70;;;;;;;10.53;37.42;101966.31;5012710;28;20049;-64
2021/03/24 00:31:06;;;;;;;11.85;7.95;;;;;;;10.52;37.32;101965.44;5012714;28;20710;-65
2021/03/24 00:33:33;;;;;;;10.70;7.30;;;;;;;10.50;37.75;101962.03;5012683;28;20490;-65
2021/03/24 00:36:00;;;;;;;15.23;7.78;;;;;;;10.50;37.49;101962.03;5012627;28;20050;-65
2021/03/24 00:38:26;;;;;;;14.48;7.40;;;;;;;10.49;37.45;101960.31;5011373;28;20049;-65
2021/03/24 00:40:55;;;;;;;9.90;6.20;;;;;;;10.47;37.46;101962.13;5012611;28;20444;-65
2021/03/24 00:43:22;;;;;;;8.45;5.93;;;;;;;10.43;37.44;101958.75;5012522;28;20055;-64
2021/03/24 00:45:48;;;;;;;12.13;6.43;;;;;;;10.42;37.77;101970.19;5012613;28;20462;-65
2021/03/24 00:48:21;;;;;;;9.20;6.45;;;;;;;10.40;37.62;101958.88;5012599;28;20054;-64
2021/03/24 00:50:48;;;;;;;11.55;7.15;;;;;;;10.39;37.78;101962.41;5012467;28;20447;-64
2021/03/24 00:53:14;;;;;;;9.82;6.15;;;;;;;10.39;37.88;101961.56;5012578;28;20058;-64
2021/03/24 00:55:41;;;;;;;12.80;6.88;;;;;;;10.37;38.05;101961.59;5012619;28;20479;-64
2021/03/24 00:58:07;;;;;;;10.63;6.40;;;;;;;10.34;38.09;101959.06;5011871;28;20049;-65
2021/03/24 01:00:37;;;;;;;11.30;6.15;;;;;;;10.32;38.09;101953.00;5012414;28;20046;-65
2021/03/24 01:03:04;;;;;;;12.40;6.45;;;;;;;10.32;38.18;101957.41;5012111;28;20053;-65
2021/03/24 01:05:32;;;;;;;10.73;6.15;;;;;;;10.28;38.23;101956.66;5012403;28;20566;-64
2021/03/24 01:08:07;;;;;;;8.95;5.82;;;;;;;10.25;38.45;101955.00;5012393;28;20050;-64
2021/03/24 01:10:35;;;;;;;12.85;5.70;;;;;;;10.22;38.51;101957.75;5012366;28;20046;-65
2021/03/24 01:13:02;;;;;;;12.40;6.18;;;;;;;10.21;38.52;101955.16;5011647;28;20058;-65
2021/03/24 01:15:28;;;;;;;8.18;5.78;;;;;;;10.17;38.60;101957.06;5012310;28;20081;-65
2021/03/24 01:17:55;;;;;;;9.35;5.63;;;;;;;10.14;38.69;101967.63;5012403;28;20495;-65
2021/03/24 01:20:27;;;;;;;8.85;6.20;;;;;;;10.12;38.95;101961.63;5012393;28;20079;-65
2021/03/24 01:22:55;;;;;;;10.57;5.65;;;;;;;10.07;38.92;101953.91;5012441;28;20100;-65
2021/03/24 01:25:22;;;;;;;11.65;6.20;;;;;;;10.05;39.07;101957.47;5012382;28;20045;-64
2021/03/24 01:27:49;;;;;;;12.20;6.80;;;;;;;10.02;39.10;101954.94;5012177;28;20451;-65
2021/03/24 01:30:17;;;;;;;11.90;6.78;;;;;;;9.98;39.26;101948.97;5011614;28;20048;-65
2021/03/24 01:32:43;;;;;;;11.15;6.68;;;;;;;9.96;39.44;101953.41;5012109;28;20046;-65
2021/03/24 01:35:10;;;;;;;14.55;6.63;;;;;;;9.93;39.38;101951.75;5012213;28;20049;-65
2021/03/24 01:37:40;;;;;;;10.93;6.70;;;;;;;9.90;39.61;101957.13;5012116;28;20046;-64
2021/03/24 01:40:15;;;;;;;10.85;6.72;;;;;;;9.89;39.73;101962.38;5012159;28;20046;-65
2021/03/24 01:42:41;;;;;;;10.20;7.18;;;;;;;9.86;39.47;101963.34;5012050;28;20050;-64
2021/03/24 01:45:27;;;;;;;10.05;6.43;;;;;;;9.84;39.70;101965.19;5011444;28;20487;-64
2021/03/24 01:47:56;;;;;;;11.52;6.90;;;;;;;9.82;39.82;101969.63;5012039;28;20053;-65
2021/03/24 01:50:36;;;;;;;11.90;6.45;;;;;;;9.78;39.94;101962.75;5012128;28;20052;-65
2021/03/24 01:53:15;;;;;;;9.38;6.40;;;;;;;9.76;39.96;101965.44;5015512;28;20050;-65
2021/03/24 01:55:42;;;;;;;9.45;6.00;;;;;;;9.74;39.82;101959.38;5015515;28;20048;-65
2021/03/24 01:58:09;;;;;;;9.98;6.75;;;;;;;9.74;40.09;101962.00;5015506;28;20209;-64
2021/03/24 02:00:49;;;;;;;7.57;5.78;;;;;;;9.74;39.94;101958.53;5014820;28;20093;-65
2021/03/24 02:03:16;;;;;;;9.15;5.88;;;;;;;9.75;39.95;101954.97;5015344;28;20081;-65
2021/03/24 02:05:44;;;;;;;10.88;6.22;;;;;;;9.75;39.75;101965.47;5015382;28;20060;-65
2021/03/24 02:08:30;;;;;;;9.90;6.18;;;;;;;9.73;40.16;101955.03;5015270;28;20041;-68
2021/03/24 02:11:07;;;;;;;17.53;6.30;;;;;;;9.75;39.83;101952.38;5015450;28;20050;-64
2021/03/24 02:13:41;;;;;;;11.32;5.90;;;;;;;9.75;40.00;101953.25;5015068;28;20304;-65
2021/03/24 02:16:23;;;;;;;11.85;6.10;;;;;;;9.77;39.67;101950.56;5015221;28;20054;-64
2021/03/24 02:18:53;;;;;;;10.82;6.65;;;;;;;9.78;39.49;101953.13;4995628;28;20517;-64
2021/03/24 02:21:27;;;;;;;9.90;5.75;;;;;;;9.78;39.71;101947.03;4995679;28;20125;-64
2021/03/24 02:24:01;;;;;;;10.15;5.50;;;;;;;9.76;39.50;101948.84;4995648;28;20050;-64
2021/03/24 02:26:43;;;;;;;10.63;5.90;;;;;;;9.74;39.62;101948.06;4995239;28;20046;-64
2021/03/24 02:29:14;;;;;;;9.68;6.25;;;;;;;9.71;39.89;101949.00;4995295;28;20050;-64
2021/03/24 02:31:41;;;;;;;11.75;6.15;;;;;;;9.69;39.93;101942.97;4995093;28;20058;-64
2021/03/24 02:34:15;;;;;;;10.20;6.15;;;;;;;9.68;40.02;101951.72;4996474;28;20057;-65
2021/03/24 02:36:42;;;;;;;10.82;6.45;;;;;;;9.68;40.09;101949.09;5014695;28;20049;-64
2021/03/24 02:39:13;;;;;;;12.55;6.93;;;;;;;9.70;39.97;101941.19;5014749;28;20059;-64
2021/03/24 02:41:41;;;;;;;11.25;6.78;;;;;;;9.69;39.91;101945.56;5014612;28;20454;-64
2021/03/24 02:44:09;;;;;;;12.65;6.57;;;;;;;9.68;40.10;101951.72;5014547;28;20490;-64
2021/03/24 02:46:35;;;;;;;14.70;7.05;;;;;;;9.64;40.08;101953.59;5014564;28;20057;-64
2021/03/24 02:49:04;;;;;;;10.10;6.57;;;;;;;9.58;40.19;101947.69;5014659;28;20066;-64
2021/03/24 02:51:31;;;;;;;10.30;6.65;;;;;;;9.52;40.30;101948.75;5014306;28;20049;-64
2021/03/24 02:54:08;;;;;;;12.13;6.05;;;;;;;9.47;40.27;101956.78;5014485;28;20049;-64
2021/03/24 02:56:35;;;;;;;13.95;6.05;;;;;;;9.42;40.67;101950.81;5014528;28;20111;-64
2021/03/24 02:59:02;;;;;;;11.63;6.53;;;;;;;9.40;40.83;101946.53;5014395;28;20115;-64
2021/03/24 03:01:36;;;;;;;11.07;6.00;;;;;;;9.37;40.55;101957.09;5014210;28;20169;-65
2021/03/24 03:04:35;;;;;;;11.52;6.45;;;;;;;9.29;40.95;101954.72;5013142;28;20054;-64
2021/03/24 03:07:07;;;;;;;10.40;5.82;;;;;;;9.24;40.96;101956.63;5013326;28;20062;-64
2021/03/24 03:09:44;;;;;;;9.70;6.18;;;;;;;9.19;41.08;101956.78;5014043;28;20093;-64
2021/03/24 03:12:20;;;;;;;12.25;6.80;;;;;;;9.13;41.18;101949.97;5014191;28;20100;-64
2021/03/24 03:14:56;;;;;;;14.55;6.85;;;;;;;9.10;41.32;101962.31;5013995;28;20058;-64
2021/03/24 03:17:41;;;;;;;12.18;6.90;;;;;;;9.05;41.23;101946.72;5013999;28;20556;-64
2021/03/24 03:20:15;;;;;;;10.50;6.32;;;;;;;9.05;41.47;101956.34;5013924;28;20453;-65
2021/03/24 03:22:50;;;;;;;10.20;6.57;;;;;;;9.04;41.53;101960.75;5013785;28;20100;-64
2021/03/24 03:25:24;;;;;;;9.03;5.77;;;;;;;9.02;41.46;101956.47;5013635;28;20553;-64
2021/03/24 03:27:53;;;;;;;13.27;6.80;;;;;;;8.99;41.85;101960.03;5013914;28;20046;-64
2021/03/24 03:30:25;;;;;;;11.07;7.25;;;;;;;8.95;42.10;101950.53;5013945;28;20046;-64
2021/03/24 03:32:55;;;;;;;10.48;6.60;;;;;;;8.94;42.17;101957.53;5013753;28;20054;-65
2021/03/24 03:35:24;;;;;;;11.60;6.25;;;;;;;8.95;42.02;101956.66;5013751;28;20491;-65
2021/03/24 03:37:55;;;;;;;10.93;6.57;;;;;;;8.94;42.10;101961.94;5013853;28;20046;-64
2021/03/24 03:40:24;;;;;;;11.38;6.35;;;;;;;8.90;41.89;101955.94;5013674;28;20046;-64
2021/03/24 03:42:51;;;;;;;10.68;6.78;;;;;;;8.86;42.20;101958.69;4995918;28;20510;-64
2021/03/24 03:45:18;;;;;;;9.23;6.43;;;;;;;8.82;42.31;101968.38;4993844;28;20046;-64
2021/03/24 03:47:45;;;;;;;11.43;6.35;;;;;;;8.80;42.46;101964.97;4993865;28;20050;-64
2021/03/24 03:50:18;;;;;;;9.13;6.57;;;;;;;8.75;42.38;101966.84;4993866;28;20054;-65
2021/03/24 03:52:50;;;;;;;11.80;6.45;;;;;;;8.70;42.69;101960.88;4993544;28;20135;-64
2021/03/24 03:55:42;;;;;;;10.52;6.72;;;;;;;8.66;42.85;101960.97;4993775;28;20101;-64
2021/03/24 03:58:51;;;;;;;10.25;7.25;;;;;;;8.64;42.92;101959.31;4993810;28;20116;-64
2021/03/24 04:01:49;;;;;;;9.77;6.32;;;;;;;8.60;43.05;101963.75;4991225;28;20046;-64
2021/03/24 04:04:26;;;;;;;11.77;7.32;;;;;;;8.58;43.12;101960.34;4999716;28;20053;-64
2021/03/24 04:07:02;;;;;;;11.30;7.00;;;;;;;8.58;42.99;101967.31;5009742;28;20639;-64
2021/03/24 04:09:28;;;;;;;11.80;6.32;;;;;;;8.58;43.06;101969.94;5009764;28;20046;-64
2021/03/24 04:11:55;;;;;;;12.60;6.68;;;;;;;8.55;43.17;101963.03;5009817;28;20056;-65
2021/03/24 04:14:24;;;;;;;28.50;7.43;;;;;;;8.54;43.01;101963.09;5009401;28;20053;-64
2021/03/24 04:16:51;;;;;;;19.58;8.23;;;;;;;8.47;43.19;101965.88;5009390;28;20046;-65
2021/03/24 04:19:22;;;;;;;30.58;8.25;;;;;;;8.42;42.94;101974.72;5009879;28;20140;-65
2021/03/24 04:21:52;;;;;;;16.30;8.05;;;;;;;8.39;43.23;101973.03;5009683;28;20050;-64
2021/03/24 04:24:25;;;;;;;22.63;8.02;;;;;;;8.39;43.31;101975.66;5009527;28;20049;-64
2021/03/24 04:26:58;;;;;;;17.50;7.78;;;;;;;8.39;43.24;101977.41;5009575;28;20050;-65
2021/03/24 04:30:13;;;;;;;16.27;7.22;;;;;;;8.36;43.42;101974.91;5009446;28;20053;-64
2021/03/24 04:32:40;;;;;;;15.68;6.80;;;;;;;8.32;43.13;101981.97;4992048;28;20054;-64
2021/03/24 04:35:08;;;;;;;14.00;6.30;;;;;;;8.29;43.31;101982.91;5009421;28;20096;-65
2021/03/24 04:37:38;;;;;;;12.02;6.68;;;;;;;8.25;43.20;101986.50;5009584;28;20050;-64
2021/03/24 04:40:31;;;;;;;21.85;8.27;;;;;;;8.24;43.47;101983.91;5009703;28;20058;-65
2021/03/24 04:43:17;;;;;;;14.10;7.35;;;;;;;8.22;43.45;101994.41;5001507;28;20526;-65
2021/03/24 04:46:04;;;;;;;15.23;7.20;;;;;;;8.21;43.75;101981.41;5009170;28;20054;-64
2021/03/24 04:48:53;;;;;;;11.73;6.78;;;;;;;8.20;43.82;101982.28;5009303;28;20112;-65
2021/03/24 04:51:28;;;;;;;17.48;7.63;;;;;;;8.18;43.80;101987.56;5008685;28;20446;-64
2021/03/24 04:54:11;;;;;;;17.65;7.78;;;;;;;8.13;43.71;101974.59;5009252;28;20050;-64
2021/03/24 04:56:40;;;;;;;20.73;8.27;;;;;;;8.09;43.90;101980.81;5009047;28;20046;-64
2021/03/24 04:59:13;;;;;;;15.90;7.20;;;;;;;8.04;43.78;101985.31;5008969;28;20132;-64
2021/03/24 05:01:44;;;;;;;11.38;6.95;;;;;;;7.98;43.71;101993.31;5008968;28;20469;-65
2021/03/24 05:04:33;;;;;;;14.52;8.25;;;;;;;7.95;44.25;101996.84;5008990;28;20049;-64
2021/03/24 05:07:07;;;;;;;16.50;7.75;;;;;;;7.92;44.34;101999.56;5009206;28;20101;-64
2021/03/24 05:09:34;;;;;;;19.83;7.55;;;;;;;7.92;44.35;102003.91;5009286;28;20049;-64
2021/03/24 05:12:16;;;;;;;24.25;8.07;;;;;;;7.91;44.48;102010.91;5009155;28;20049;-65
2021/03/24 05:15:09;;;;;;;17.35;7.72;;;;;;;7.89;44.46;102014.47;4993706;28;20046;-65
2021/03/24 05:17:40;;;;;;;18.20;8.50;;;;;;;7.87;44.67;102021.47;4989575;28;20046;-64
2021/03/24 05:20:20;;;;;;;22.98;8.55;;;;;;;7.83;44.87;102025.91;4989455;28;20046;-64
2021/03/24 05:22:47;;;;;;;25.13;8.57;;;;;;;7.82;44.89;102035.50;4989438;28;20113;-64
2021/03/24 05:25:34;;;;;;;22.15;9.13;;;;;;;7.83;45.02;102032.00;4989642;28;20105;-64
2021/03/24 05:28:29;;;;;;;21.27;8.77;;;;;;;7.85;44.88;102034.56;4992800;28;20487;-64
2021/03/24 05:31:03;;;;;;;17.98;8.75;;;;;;;7.85;45.17;102034.56;4992158;28;20343;-64
2021/03/24 05:33:35;;;;;;;15.15;9.60;;;;;;;7.87;44.83;102035.38;5007647;28;20136;-64
2021/03/24 05:36:12;;;;;;;15.73;8.05;;;;;;;7.88;44.84;102037.09;4993250;28;20795;-64
2021/03/24 05:38:48;;;;;;;15.25;8.07;;;;;;;7.91;44.71;102041.41;4993025;28;20053;-64
2021/03/24 05:41:29;;;;;;;13.32;8.13;;;;;;;7.95;44.71;102046.53;4993079;28;20178;-64
2021/03/24 05:44:19;;;;;;;11.95;7.47;;;;;;;7.99;44.40;102047.31;4993109;28;20057;-64
2021/03/24 05:46:45;;;;;;;14.52;7.88;;;;;;;8.00;44.45;102046.41;5010163;28;20526;-64
2021/03/24 05:49:45;;;;;;;12.82;7.15;;;;;;;8.04;44.40;102055.00;5012527;28;20879;-64
2021/03/24 05:52:32;;;;;;;16.73;7.97;;;;;;;8.07;44.46;102049.72;5012347;28;20120;-64
2021/03/24 05:55:26;;;;;;;14.65;7.68;;;;;;;8.07;44.19;102058.41;5012203;28;20052;-64
2021/03/24 05:58:12;;;;;;;12.95;8.52;;;;;;;8.10;44.36;102050.50;5011695;28;20045;-64
2021/03/24 06:00:54;;;;;;;13.15;7.13;;;;;;;8.14;44.23;102048.69;5012073;28;20925;-64
2021/03/24 06:03:46;;;;;;;12.23;8.20;;;;;;;8.17;44.39;102054.66;5011758;28;20057;-63
2021/03/24 06:06:21;;;;;;;13.93;7.72;;;;;;;8.20;44.15;102056.34;5011866;28;20505;-64
2021/03/24 06:09:12;;;;;;;15.10;7.87;;;;;;;8.23;44.16;102058.03;5011730;28;20046;-64
2021/03/24 06:12:03;;;;;;;18.10;8.88;;;;;;;8.25;44.35;102059.72;5011702;28;20312;-64
2021/03/24 06:14:49;;;;;;;12.60;8.02;;;;;;;8.27;44.15;102057.06;5011713;28;20061;-64
2021/03/24 06:17:34;;;;;;;14.77;9.20;;;;;;;8.29;44.16;102063.09;5011726;28;20053;-65
2021/03/24 06:20:37;;;;;;;16.67;10.68;;;;;;;8.31;44.19;102059.56;5011107;28;20042;-65
2021/03/24 06:23:17;;;;;;;15.68;10.25;;;;;;;8.36;44.00;102058.59;5010663;28;20050;-64
2021/03/24 06:25:47;;;;;;;15.68;10.30;;;;;;;8.38;44.18;102055.03;5010759;28;20072;-70
2021/03/24 06:28:25;;;;;;;14.50;9.57;;;;;;;8.40;44.46;102060.22;5011227;28;20104;-68
2021/03/24 06:31:28;;;;;;;16.25;9.35;;;;;;;8.43;44.20;102058.38;5011512;28;20045;-68
2021/03/24 06:34:22;;;;;;;19.50;8.88;;;;;;;8.47;43.94;102061.81;5010361;28;20103;-67
2021/03/24 06:37:19;;;;;;;19.80;8.90;;;;;;;8.50;44.19;102070.41;4998369;28;20050;-67
2021/03/24 06:39:51;;;;;;;16.83;8.15;;;;;;;8.52;44.80;102072.16;5011067;28;20046;-68
2021/03/24 06:42:28;;;;;;;23.27;9.07;;;;;;;8.52;44.99;102061.69;5010662;28;20535;-67
2021/03/24 06:45:12;;;;;;;15.48;9.20;;;;;;;8.58;44.90;102059.78;5011031;28;20053;-68
2021/03/24 06:47:58;;;;;;;17.38;9.63;;;;;;;8.67;45.06;102066.50;5009980;28;20419;-67
2021/03/24 06:51:09;;;;;;;15.65;9.30;;;;;;;8.79;44.53;102070.56;5009736;28;20803;-68
2021/03/24 06:54:02;;;;;;;13.73;8.85;;;;;;;8.93;44.31;102076.25;4991231;28;20112;-69
2021/03/24 06:56:43;;;;;;;21.17;10.48;;;;;;;9.03;43.92;102071.63;5005742;28;20092;-65
2021/03/24 06:59:40;;;;;;;16.77;9.90;;;;;;;9.13;43.65;102080.06;5010871;28;20392;-68
2021/03/24 07:02:40;;;;;;;13.98;9.30;;;;;;;9.23;43.82;102081.50;5010362;28;20120;-69
2021/03/24 07:05:35;;;;;;;13.98;8.73;;;;;;;9.23;43.90;102080.63;5010311;28;20058;-68
2021/03/24 07:08:25;;;;;;;15.15;9.40;;;;;;;9.30;43.97;102084.81;5010700;28;20438;-66
2021/03/24 07:11:21;;;;;;;18.05;9.23;;;;;;;9.36;44.24;102089.88;5003447;28;20903;-67
2021/03/24 07:14:06;;;;;;;;;;;;;;;9.47;44.35;102087.78;4987236;28;20058;-70
2021/03/24 07:17:13;;;;;;;16.15;9.88;;;;;;;9.66;44.02;102088.97;4990703;28;19972;-67
2021/03/24 07:20:08;;;;;;;19.88;9.35;;;;;;;9.79;43.65;102091.16;5004888;28;20077;-67
2021/03/24 07:22:56;;;;;;;20.33;9.35;;;;;;;9.90;43.67;102097.81;5009834;28;20058;-67
2021/03/24 07:25:27;;;;;;;16.92;9.77;;;;;;;10.02;43.65;102092.19;5009883;28;20049;-68
2021/03/24 07:28:31;;;;;;;18.42;9.48;;;;;;;10.13;43.47;102103.19;5008480;28;20041;-67
2021/03/24 07:31:13;;;;;;;15.02;8.77;;;;;;;10.27;43.16;102099.22;5009842;28;20127;-67
2021/03/24 07:33:58;;;;;;;14.43;9.82;;;;;;;10.39;43.04;102093.63;5009840;28;20050;-68
2021/03/24 07:37:08;;;;;;;15.70;8.88;;;;;;;10.48;42.66;102099.47;5009491;28;20053;-67
2021/03/24 07:39:59;;;;;;;17.08;8.93;;;;;;;10.55;42.34;102099.19;5009457;28;20112;-68
2021/03/24 07:43:11;;;;;;;16.63;9.30;;;;;;;10.66;41.94;102100.59;5009193;28;20057;-67
2021/03/24 07:46:05;;;;;;;12.70;8.10;;;;;;;10.83;41.42;102097.34;4993000;28;20050;-68
2021/03/24 07:48:59;;;;;;;15.60;9.80;;;;;;;10.95;41.07;102095.13;5009161;28;20132;-67
2021/03/24 07:51:59;;;;;;;19.58;9.30;;;;;;;11.13;41.00;102103.25;5009426;28;20509;-66
2021/03/24 07:54:46;;;;;;;14.77;8.52;;;;;;;11.29;40.74;102095.69;5002032;28;20090;-65
2021/03/24 07:57:31;;;;;;;16.48;8.35;;;;;;;11.47;40.20;102096.75;4999859;28;20092;-68
2021/03/24 08:00:17;;;;;;;14.27;8.05;;;;;;;11.62;40.22;102099.66;5008719;28;20056;-68
2021/03/24 08:02:53;;;;;;;;;;;;;;;11.75;39.99;102106.19;5008517;28;20061;-69
2021/03/24 08:05:31;;;;;;;13.25;8.73;;;;;;;11.89;39.99;102103.00;5007858;28;20330;-65
2021/03/24 08:08:16;;;;;;;16.92;8.48;;;;;;;11.99;39.99;102093.00;5008072;28;20096;-67
2021/03/24 08:10:48;;;;;;;20.50;8.65;;;;;;;12.11;39.76;102091.63;5005246;28;20041;-67
2021/03/24 08:13:43;;;;;;;16.00;8.33;;;;;;;12.25;39.84;102095.41;5008766;28;20077;-66
2021/03/24 08:16:43;;;;;;;12.57;8.05;;;;;;;12.41;39.78;102087.69;5008924;28;20050;-68
2021/03/24 08:19:46;;;;;;;14.18;7.45;;;;;;;12.57;39.66;102089.69;5009028;28;20407;-67
2021/03/24 08:22:33;;;;;;;12.68;7.53;;;;;;;12.71;39.57;102081.19;5008887;28;20136;-68
2021/03/24 08:25:06;;;;;;;14.85;7.85;;;;;;;12.85;39.30;102077.91;5008678;28;20088;-67
2021/03/24 08:27:47;;;;;;;12.63;7.32;;;;;;;12.98;39.04;102079.06;5008025;28;20046;-67
2021/03/24 08:30:41;;;;;;;9.25;5.82;;;;;;;13.15;38.80;102085.34;4989094;28;20046;-66
2021/03/24 08:33:07;;;;;;;10.27;5.78;;;;;;;13.27;37.85;102084.78;4992888;28;20136;-68
2021/03/24 08:36:02;;;;;;;9.98;5.88;;;;;;;13.40;36.77;102082.47;5007925;28;20058;-66
2021/03/24 08:39:06;;;;;;;10.35;5.97;;;;;;;13.52;36.03;102084.53;5008655;28;20046;-66
2021/03/24 08:41:41;;;;;;;10.48;5.80;;;;;;;13.66;35.53;102080.38;5007991;28;20077;-63
2021/03/24 08:44:18;;;;;;;9.93;5.90;;;;;;;13.79;35.19;102080.63;5009046;28;20038;-64
2021/03/24 08:46:53;;;;;;;11.85;6.13;;;;;;;13.90;34.83;102074.81;5008490;28;20046;-65
2021/03/24 08:49:23;;;;;;;14.02;6.60;;;;;;;14.03;34.68;102076.78;5008697;28;20046;-65
2021/03/24 08:52:15;;;;;;;10.20;6.22;;;;;;;14.17;34.39;102081.38;5008914;28;20406;-65
2021/03/24 08:55:19;;;;;;;10.10;6.20;;;;;;;14.29;33.90;102076.41;5008156;28;20489;-66
2021/03/24 08:58:06;;;;;;;10.02;5.90;;;;;;;14.42;33.60;102073.97;5008814;28;20049;-65
2021/03/24 09:00:52;;;;;;;10.10;6.40;;;;;;;14.52;32.86;102077.84;5008396;28;20125;-67
2021/03/24 09:03:53;;;;;;;9.50;6.30;;;;;;;14.64;32.70;102066.69;5012793;28;20064;-67
2021/03/24 09:06:53;;;;;;;10.45;7.05;;;;;;;14.80;32.60;102063.22;5003408;28;20053;-65
2021/03/24 09:09:39;;;;;;;11.68;7.18;;;;;;;14.92;32.32;102059.94;5001643;28;20045;-67
2021/03/24 09:12:26;;;;;;;10.57;6.97;;;;;;;15.06;32.20;102064.47;5000902;28;20050;-67
2021/03/24 09:15:01;;;;;;;10.27;6.88;;;;;;;15.19;32.14;102065.50;5025104;28;20052;-67
2021/03/24 09:17:57;;;;;;;12.13;6.55;;;;;;;15.39;32.80;102067.97;5011948;28;20624;-71
2021/03/24 09:20:53;;;;;;;13.35;6.63;;;;;;;15.57;33.64;102066.09;5012207;28;20073;-70
2021/03/24 09:23:26;;;;;;;11.75;7.30;;;;;;;15.72;34.29;102061.72;5012969;28;20410;-69
2021/03/24 09:26:18;;;;;;;16.80;7.22;;;;;;;15.87;34.74;102066.16;5012138;28;20049;-69
2021/03/24 09:29:11;;;;;;;13.38;7.28;;;;;;;16.05;35.38;102066.88;5025248;28;20045;-66
2021/03/24 09:31:47;;;;;;;;;;;;;;;16.19;34.42;102073.16;5005733;28;20123;-68
2021/03/24 09:34:34;;;;;;;20.15;7.43;;;;;;;16.36;34.00;102062.41;4992765;28;19928;-70
2021/03/24 09:37:07;;;;;;;11.75;7.57;;;;;;;16.49;33.82;102071.34;5004796;28;20132;-67
2021/03/24 09:39:48;;;;;;;16.15;8.20;;;;;;;16.57;32.75;102064.69;5009264;28;20415;-71
2021/03/24 09:42:31;;;;;;;13.30;7.88;;;;;;;16.67;33.40;102063.22;5006330;28;20046;-70
2021/03/24 09:45:13;;;;;;;17.02;8.60;;;;;;;16.78;32.92;102062.53;5005165;28;20048;-68
2021/03/24 09:48:01;;;;;;;10.38;6.88;;;;;;;16.88;32.77;102068.13;4999337;28;20050;-68
2021/03/24 09:50:34;;;;;;;10.43;8.18;;;;;;;16.96;32.33;102063.22;4999540;28;20043;-68
2021/03/24 09:53:12;;;;;;;13.70;7.65;;;;;;;17.01;31.85;102063.78;5014596;28;20112;-67
2021/03/24 09:55:44;;;;;;;12.40;8.02;;;;;;;17.09;31.40;102055.34;4992701;28;20490;-67
2021/03/24 09:58:14;;;;;;;10.63;7.80;;;;;;;17.20;30.89;102047.53;5002937;28;20047;-69
2021/03/24 10:01:07;;;;;;;13.73;8.18;;;;;;;17.41;30.55;102049.78;4991914;28;20051;-66
2021/03/24 10:03:48;;;;;;;11.85;8.30;;;;;;;17.61;30.21;102056.44;4979083;28;20449;-67
2021/03/24 10:06:34;;;;;;;12.50;8.45;;;;;;;17.72;29.34;102050.41;4992588;28;20530;-66
2021/03/24 10:09:16;;;;;;;13.35;8.63;;;;;;;17.79;29.04;102047.25;4991702;28;20825;-65
2021/03/24 10:11:54;;;;;;;15.50;8.48;;;;;;;17.87;28.81;102048.56;4990683;28;20050;-66
2021/03/24 10:14:25;;;;;;;14.13;7.55;;;;;;;17.95;28.25;102047.13;4997959;28;20399;-65
2021/03/24 10:17:00;;;;;;;13.15;8.13;;;;;;;18.07;28.18;102047.25;5010417;28;20093;-65
2021/03/24 10:19:33;;;;;;;13.88;8.43;;;;;;;18.14;27.96;102037.06;5010882;28;20426;-67
2021/03/24 10:22:07;;;;;;;12.60;8.00;;;;;;;18.24;27.93;102036.31;5011084;28;20674;-66
2021/03/24 10:24:42;;;;;;;11.18;8.38;;;;;;;18.37;28.62;102038.13;5010097;28;20045;-65
2021/03/24 10:27:13;;;;;;;11.48;8.15;;;;;;;18.41;27.74;102029.84;5011133;28;20056;-66
2021/03/24 10:30:15;;;;;;;11.50;8.02;;;;;;;18.50;27.32;102031.00;5011091;28;20081;-66
2021/03/24 10:33:03;;;;;;;11.00;8.18;;;;;;;18.59;26.88;102016.22;5010373;28;20154;-65
2021/03/24 10:35:34;;;;;;;10.13;8.38;;;;;;;18.71;26.57;102011.84;5010376;28;20052;-65
2021/03/24 10:38:24;;;;;;;13.18;8.65;;;;;;;18.76;26.64;102007.88;5026158;28;20057;-65
2021/03/24 10:41:14;;;;;;;15.93;9.15;;;;;;;18.89;26.73;102007.88;5004253;28;20054;-67
2021/03/24 10:43:43;;;;;;;12.20;8.57;;;;;;;19.01;26.66;102006.16;5010037;28;20050;-65
2021/03/24 10:46:37;;;;;;;10.68;8.25;;;;;;;19.11;26.53;102006.34;5010524;28;20429;-66
2021/03/24 10:49:16;;;;;;;11.20;7.90;;;;;;;19.19;26.17;102000.47;5011003;28;20469;-65
2021/03/24 10:52:05;;;;;;;13.10;8.02;;;;;;;19.28;25.84;101993.63;5010497;28;20052;-67
2021/03/24 10:54:34;;;;;;;12.05;8.68;;;;;;;19.36;25.63;101993.88;5006013;28;20407;-68
2021/03/24 10:57:07;;;;;;;10.82;7.95;;;;;;;19.44;25.62;101991.53;5009818;28;20057;-65
2021/03/24 10:59:52;;;;;;;14.48;8.45;;;;;;;19.51;25.59;101991.91;5006956;28;20068;-69
2021/03/24 11:02:29;;;;;;;11.88;7.78;;;;;;;19.61;25.25;101992.91;5007939;28;20054;-65
2021/03/24 11:05:14;;;;;;;12.73;8.90;;;;;;;19.68;25.04;101980.84;5004415;28;20046;-68
2021/03/24 11:08:06;;;;;;;20.92;9.27;;;;;;;19.73;24.71;101983.13;5008207;28;20057;-66
2021/03/24 11:10:47;;;;;;;16.70;8.68;;;;;;;19.77;25.10;101986.41;5005386;28;20103;-68
2021/03/24 11:13:19;;;;;;;12.43;8.65;;;;;;;19.88;25.11;101976.69;5010003;28;20057;-67
2021/03/24 11:15:52;;;;;;;15.02;9.20;;;;;;;19.99;25.04;101969.69;5009659;28;20046;-67
2021/03/24 11:18:26;;;;;;;12.50;9.63;;;;;;;20.11;25.07;101973.19;5007701;28;20069;-67
2021/03/24 11:20:57;;;;;;;12.75;8.55;;;;;;;20.17;25.08;101970.91;5009523;28;20483;-68
2021/03/24 11:23:34;;;;;;;16.02;8.65;;;;;;;20.28;25.66;101959.41;5007807;28;20050;-68
2021/03/24 11:26:26;;;;;;;12.85;9.10;;;;;;;20.41;25.32;101961.94;5007725;28;20117;-68
2021/03/24 11:28:56;;;;;;;11.95;8.75;;;;;;;20.46;24.89;101965.09;5009375;28;20042;-68
2021/03/24 11:31:38;;;;;;;12.43;9.05;;;;;;;20.49;24.93;101959.53;5008535;28;20046;-68
2021/03/24 11:34:10;;;;;;;18.08;8.93;;;;;;;20.58;24.65;101954.44;5008175;28;20054;-67
2021/03/24 11:36:51;;;;;;;11.38;8.73;;;;;;;20.65;24.35;101959.13;5006946;28;20042;-68
2021/03/24 11:39:31;;;;;;;15.32;9.80;;;;;;;20.72;24.64;101956.84;5006777;28;20116;-66
2021/03/24 11:42:09;;;;;;;12.32;9.00;;;;;;;20.78;24.11;101945.69;5006711;28;20041;-65
2021/03/24 11:44:36;;;;;;;13.93;9.73;;;;;;;20.82;24.26;101944.50;5007720;28;20054;-66
2021/03/24 11:47:21;;;;;;;17.30;9.90;;;;;;;20.90;24.64;101935.84;5008057;28;20057;-66
2021/03/24 11:49:58;;;;;;;19.08;10.48;;;;;;;20.99;24.80;101928.91;5007655;28;20147;-64
2021/03/24 11:52:59;;;;;;;15.82;9.77;;;;;;;21.11;25.37;101924.38;5005850;28;20072;-65
2021/03/24 11:55:36;;;;;;;14.85;10.27;;;;;;;21.12;25.05;101924.25;5007425;28;20482;-65
2021/03/24 11:58:26;;;;;;;13.93;9.48;;;;;;;21.12;24.83;101923.41;5007435;28;20102;-63
2021/03/24 12:01:24;;;;;;;12.38;9.77;;;;;;;21.13;23.61;101914.44;5007941;28;21398;-63
2021/03/24 12:04:01;;;;;;;17.55;9.68;;;;;;;21.16;23.06;101911.50;5008082;28;20083;-64
2021/03/24 12:06:47;;;;;;;15.25;9.32;;;;;;;21.25;22.94;101901.88;5007770;28;20042;-66
2021/03/24 12:09:26;;;;;;;12.73;10.30;;;;;;;21.34;22.52;101898.41;5008231;28;20047;-64
2021/03/24 12:12:09;;;;;;;13.35;9.55;;;;;;;21.42;22.04;101900.44;5008044;28;20045;-63
2021/03/24 12:14:41;;;;;;;13.05;10.18;;;;;;;21.46;22.21;101894.72;5004309;28;20050;-64
2021/03/24 12:17:31;;;;;;;14.85;9.27;;;;;;;21.50;21.88;101893.47;5005814;28;20380;-64